Weather reports worldwide

Advertisment
Malaga,Puerto, Spain (8479): temperature & dewpoint: 18.08.2019 07:00:00 - 24.08.2019 07:00:00 (CEST)Malaga,Puerto, Spain (8479): wind speed & gusts: 18.08.2019 07:00:00 - 24.08.2019 07:00:00 (CEST)Malaga,Puerto, Spain (8479): wind direction: 18.08.2019 07:00:00 - 24.08.2019 07:00:00 (CEST)Malaga,Puerto, Spain (8479): reduced air pressure: 18.08.2019 07:00:00 - 24.08.2019 07:00:00 (CEST)Malaga,Puerto, Spain (8479): precipitation: 18.08.2019 07:00:00 - 24.08.2019 07:00:00 (CEST)
Date & Time tt [°C] td [°C] ff [km/h] ff [kn] fx [km/h] fx [kn] dd ppp [hPa] rr [mm]
24.08.2019 07:00:00 - - - - - - - - -
24.08.2019 06:00:00 - - - - - - - - -
24.08.2019 05:00:00 - - - - - - - - -
24.08.2019 04:00:00 - - - - - - - - -
24.08.2019 03:00:00 - - - - - - - - -
24.08.2019 02:00:00 - - - - - - - - -
24.08.2019 01:00:00 - - - - - - - - -
24.08.2019 00:00:00 - - - - - - - - -
23.08.2019 23:00:00 - - - - - - - - -
23.08.2019 22:00:00 - - - - - - - - -
23.08.2019 21:00:00 - - - - - - - - -
23.08.2019 20:00:00 - - - - - - - - -
23.08.2019 19:00:00 - - - - - - - - -
23.08.2019 18:00:00 - - - - - - - - -
23.08.2019 17:00:00 - - - - - - - - -
23.08.2019 16:00:00 - - - - - - - - -
23.08.2019 15:00:00 - - - - - - - - -
23.08.2019 14:00:00 - - - - - - - - -
23.08.2019 13:00:00 - - - - - - - - -
23.08.2019 12:00:00 - - - - - - - - -
23.08.2019 11:00:00 - - - - - - - - -
23.08.2019 10:00:00 - - - - - - - - -
23.08.2019 09:00:00 - - - - - - - - -
23.08.2019 08:00:00 - - - - - - - - -
23.08.2019 07:00:00 - - - - - - - - -
23.08.2019 06:00:00 - - - - - - - - -
23.08.2019 05:00:00 - - - - - - - - -
23.08.2019 04:00:00 - - - - - - - - -
23.08.2019 03:00:00 - - - - - - - - -
23.08.2019 02:00:00 - - - - - - - - -
23.08.2019 01:00:00 - - - - - - - - -
23.08.2019 00:00:00 - - - - - - - - -
22.08.2019 23:00:00 - - - - - - - - -
22.08.2019 22:00:00 - - - - - - - - -
22.08.2019 21:00:00 - - - - - - - - -
22.08.2019 20:00:00 - - - - - - - - -
22.08.2019 19:00:00 - - - - - - - - -
22.08.2019 18:00:00 - - - - - - - - -
22.08.2019 17:00:00 - - - - - - - - -
22.08.2019 16:00:00 - - - - - - - - -
22.08.2019 15:00:00 - - - - - - - - -
22.08.2019 14:00:00 28,3 18,1 8 5 19 10 SE 1016,8 -
22.08.2019 13:00:00 28,5 18,0 6 4 20 11 SE 1016,9 0,0
22.08.2019 12:00:00 25,5 18,9 13 7 19 10 SE 1017,1 0,0
22.08.2019 11:00:00 27,9 18,3 6 3 17 9 E 1016,6 0,0
22.08.2019 10:00:00 26,4 19,3 8 5 18 10 E 1016,3 0,0
22.08.2019 09:00:00 24,6 20,5 8 4 11 6 SSE 1016,9 0,0
22.08.2019 08:00:00 24,4 20,5 4 2 9 5 S 1016,2 -
22.08.2019 07:00:00 24,5 20,4 6 3 9 5 S 1016,2 0,0
22.08.2019 06:00:00 24,6 20,7 4 2 11 6 SE 1016,2 0,0
22.08.2019 05:00:00 24,5 20,6 7 4 12 6 ESE 1016,5 0,0
22.08.2019 04:00:00 24,7 21,2 4 2 13 7 ESE 1016,7 0,0
22.08.2019 03:00:00 24,8 21,1 9 5 12 6 ESE 1016,9 0,0
22.08.2019 02:00:00 25,0 21,1 6 4 18 10 ESE 1017,3 -
22.08.2019 01:00:00 25,3 21,0 4 2 19 10 E 1017,6 0,0
22.08.2019 00:00:00 25,4 20,6 6 4 16 9 ESE 1017,2 0,0
21.08.2019 23:00:00 25,3 20,5 8 4 18 10 ESE 1016,9 0,0
21.08.2019 22:00:00 25,4 20,2 9 5 14 8 ESE 1016,0 0,0
21.08.2019 21:00:00 25,7 20,5 7 4 16 8 E 1015,2 0,0
21.08.2019 20:00:00 26,0 20,6 8 4 18 10 ESE 1014,8 -
21.08.2019 19:00:00 26,0 20,1 13 7 19 11 ESE 1014,5 0,0
21.08.2019 18:00:00 26,6 19,7 10 6 15 8 ESE 1014,5 0,0
21.08.2019 17:00:00 27,8 20,9 8 5 17 9 SE 1014,6 0,0
21.08.2019 16:00:00 27,1 19,9 10 5 14 7 ESE 1015,0 0,0
21.08.2019 15:00:00 29,2 20,9 6 3 14 7 SSE 1015,4 0,0
21.08.2019 14:00:00 28,1 20,4 8 5 14 8 SSE 1015,5 -
21.08.2019 13:00:00 28,3 21,1 8 5 13 7 S 1015,8 0,0
21.08.2019 12:00:00 27,6 20,9 9 5 12 7 S 1016,0 0,0
21.08.2019 11:00:00 27,0 21,3 6 3 10 6 S 1015,8 0,0
21.08.2019 10:00:00 26,9 21,6 5 3 11 6 SSE 1015,3 0,0
21.08.2019 09:00:00 26,1 22,4 0 0 6 3 SE 1015,6 0,0
21.08.2019 08:00:00 25,1 22,0 3 1 5 3 S 1015,5 -
21.08.2019 07:00:00 25,1 21,8 4 2 5 3 SSE 1015,2 0,0
21.08.2019 06:00:00 25,2 21,7 2 1 10 6 S 1015,1 0,0
21.08.2019 05:00:00 25,3 21,8 1 1 8 4 ESE 1015,2 0,0
21.08.2019 04:00:00 25,2 21,5 4 2 13 7 SSE 1015,3 0,0
21.08.2019 03:00:00 25,2 21,3 5 3 13 7 SSE 1015,5 0,0
21.08.2019 02:00:00 25,1 20,8 9 5 19 11 SE 1015,7 -
21.08.2019 01:00:00 25,2 20,5 10 5 16 8 ESE 1015,8 0,0
21.08.2019 00:00:00 25,2 20,7 8 4 15 8 SE 1015,3 0,0
20.08.2019 23:00:00 25,5 20,7 8 4 17 9 SE 1015,2 0,0
20.08.2019 22:00:00 25,2 20,5 9 5 16 9 SE 1014,2 0,0
20.08.2019 21:00:00 24,7 20,8 6 3 9 5 SSE 1013,3 0,0
20.08.2019 20:00:00 25,3 20,5 6 3 9 5 SE 1012,8 -
20.08.2019 19:00:00 25,7 20,3 6 3 13 7 SE 1012,7 0,0
20.08.2019 18:00:00 25,5 20,5 9 5 14 8 SE 1012,9 0,0
20.08.2019 17:00:00 25,8 20,4 10 5 14 7 SE 1013,1 0,0
20.08.2019 16:00:00 26,0 20,3 8 5 16 9 SE 1013,4 0,0
20.08.2019 15:00:00 26,8 20,4 8 5 16 9 SSE 1013,4 0,0
20.08.2019 14:00:00 26,7 20,1 8 4 14 8 SSE 1013,4 -
20.08.2019 13:00:00 26,1 19,5 8 5 16 9 SE 1013,8 0,0
20.08.2019 12:00:00 25,5 20,1 9 5 18 10 SSE 1013,8 0,0
20.08.2019 11:00:00 28,2 20,2 4 2 14 8 E 1012,9 0,0
20.08.2019 10:00:00 26,0 15,4 9 5 14 7 SSE 1012,5 0,0
20.08.2019 09:00:00 27,1 12,7 1 1 10 6 NE 1012,2 0,0
20.08.2019 08:00:00 24,0 11,7 3 2 11 6 NW 1012,3 -
20.08.2019 07:00:00 23,3 15,1 3 2 8 4 NW 1012,0 0,0
20.08.2019 06:00:00 23,5 17,3 1 1 11 6 NW 1011,9 0,0
20.08.2019 05:00:00 24,1 18,7 6 3 15 8 N 1011,9 0,0
20.08.2019 04:00:00 24,5 18,4 8 4 14 7 E 1012,0 0,0
20.08.2019 03:00:00 23,5 20,4 4 2 20 11 E 1011,9 0,0
20.08.2019 02:00:00 23,9 21,6 15 8 22 12 ESE 1012,1 -
20.08.2019 01:00:00 24,2 21,3 5 3 12 6 ESE 1011,6 0,0
20.08.2019 00:00:00 24,6 20,9 1 0 6 3 SE 1011,0 0,0
19.08.2019 23:00:00 24,9 21,0 2 1 12 6 ESE 1011,0 0,0
19.08.2019 22:00:00 25,5 20,1 7 4 19 10 E 1010,0 0,0
19.08.2019 21:00:00 25,2 20,5 13 7 22 12 E 1009,4 0,0
19.08.2019 20:00:00 26,2 18,6 13 7 24 13 E 1008,8 -
19.08.2019 19:00:00 28,2 17,1 12 7 27 15 E 1009,2 0,0
19.08.2019 18:00:00 28,0 16,9 14 8 23 12 E 1009,5 0,0
19.08.2019 17:00:00 27,6 16,9 12 6 22 12 E 1009,9 0,0
19.08.2019 16:00:00 26,7 16,0 11 6 17 9 SE 1010,3 0,0
19.08.2019 15:00:00 30,7 13,5 6 3 17 9 E 1010,7 0,0
19.08.2019 14:00:00 25,9 19,3 13 7 17 9 E 1011,3 -
19.08.2019 13:00:00 25,3 17,7 11 6 16 9 ESE 1011,3 0,0
19.08.2019 12:00:00 25,3 19,4 9 5 16 9 ESE 1011,3 0,0
19.08.2019 11:00:00 26,2 18,8 8 4 23 12 ESE 1010,8 0,0
19.08.2019 10:00:00 30,0 11,0 9 5 22 12 W 1010,1 0,0
19.08.2019 09:00:00 28,7 10,4 5 3 16 9 WNW 1010,2 0,0
19.08.2019 08:00:00 26,9 9,3 7 4 20 11 WNW 1010,4 -
19.08.2019 07:00:00 27,5 9,3 7 4 20 11 W 1010,2 0,0
19.08.2019 06:00:00 28,2 8,5 10 6 22 12 W 1009,7 0,0
19.08.2019 05:00:00 28,9 8,6 9 5 21 11 W 1010,1 0,0
19.08.2019 04:00:00 30,0 8,4 8 5 24 13 W 1010,2 0,0
19.08.2019 03:00:00 30,5 7,7 11 6 23 12 WNW 1010,4 0,0
19.08.2019 02:00:00 30,3 9,2 7 4 19 10 W 1010,6 -
19.08.2019 01:00:00 30,5 11,5 9 5 19 10 W 1010,5 0,0
19.08.2019 00:00:00 29,1 15,2 8 4 15 8 WSW 1010,4 0,0
18.08.2019 23:00:00 26,2 17,8 1 1 8 4 E 1010,3 0,0
18.08.2019 22:00:00 27,1 17,6 0 0 4 2 SE 1009,5 0,0
18.08.2019 21:00:00 26,7 16,3 1 1 13 7 E 1009,1 0,0
18.08.2019 20:00:00 27,6 15,3 10 5 16 9 E 1009,1 -
18.08.2019 19:00:00 27,9 16,5 10 5 20 11 E 1009,6 0,0
18.08.2019 18:00:00 27,3 16,9 10 5 16 9 E 1010,0 0,0
18.08.2019 17:00:00 27,2 18,2 8 5 18 10 E 1010,4 0,0
18.08.2019 16:00:00 25,3 18,2 12 7 18 10 E 1011,0 0,0
18.08.2019 15:00:00 25,4 18,6 9 5 15 8 ESE 1011,4 0,0
18.08.2019 14:00:00 25,8 18,5 7 4 13 7 ESE 1011,6 -
18.08.2019 13:00:00 26,7 19,1 6 4 13 7 ESE 1011,8 0,0
18.08.2019 12:00:00 25,6 18,0 8 4 14 8 ESE 1011,6 0,0
18.08.2019 11:00:00 26,1 16,6 6 3 10 6 ESE 1010,9 0,0
18.08.2019 10:00:00 26,7 18,6 1 1 8 4 ESE 1010,6 0,0
18.08.2019 09:00:00 24,2 18,8 4 2 6 3 ESE 1010,2 0,0
18.08.2019 08:00:00 21,8 18,8 2 1 8 4 SSE 1010,5 -
18.08.2019 07:00:00 22,3 19,5 8 4 15 8 ENE 1010,3 0,0

tt = temperature
td = dewpoint
ff = wind speed
fx = gusts
dd = wind direction
ppp = reduced air pressure
rr = precipitation

Next stations